sensor_id;sensor_type;location;lat;lon;timestamp;temperature;humidity
17697;DHT22;8967;47.984;7.842;2022-08-27T00:02:19;20.70;99.90
17697;DHT22;8967;47.984;7.842;2022-08-27T00:04:46;20.70;99.90
17697;DHT22;8967;47.984;7.842;2022-08-27T00:07:13;20.60;99.90
17697;DHT22;8967;47.984;7.842;2022-08-27T00:09:40;20.60;99.90
17697;DHT22;8967;47.984;7.842;2022-08-27T00:12:10;20.60;99.90
17697;DHT22;8967;47.984;7.842;2022-08-27T00:14:38;20.70;99.90
17697;DHT22;8967;47.984;7.842;2022-08-27T00:17:05;20.70;99.90
17697;DHT22;8967;47.984;7.842;2022-08-27T00:19:35;20.70;99.90
17697;DHT22;8967;47.984;7.842;2022-08-27T00:22:03;20.70;99.90
17697;DHT22;8967;47.984;7.842;2022-08-27T00:24:30;20.70;99.90
17697;DHT22;8967;47.984;7.842;2022-08-27T00:26:57;20.70;99.90
17697;DHT22;8967;47.984;7.842;2022-08-27T00:29:28;20.80;99.90
17697;DHT22;8967;47.984;7.842;2022-08-27T00:31:55;20.80;99.90
17697;DHT22;8967;47.984;7.842;2022-08-27T00:34:22;20.80;99.90
17697;DHT22;8967;47.984;7.842;2022-08-27T00:36:49;20.80;99.90
17697;DHT22;8967;47.984;7.842;2022-08-27T00:39:16;20.80;99.90
17697;DHT22;8967;47.984;7.842;2022-08-27T00:41:43;20.80;99.90
17697;DHT22;8967;47.984;7.842;2022-08-27T00:44:12;20.80;99.90
17697;DHT22;8967;47.984;7.842;2022-08-27T00:46:46;20.80;99.90
17697;DHT22;8967;47.984;7.842;2022-08-27T00:49:19;20.80;99.90
17697;DHT22;8967;47.984;7.842;2022-08-27T00:51:51;20.80;99.90
17697;DHT22;8967;47.984;7.842;2022-08-27T00:54:21;20.80;99.90
17697;DHT22;8967;47.984;7.842;2022-08-27T00:56:48;20.80;99.90
17697;DHT22;8967;47.984;7.842;2022-08-27T00:59:16;20.80;99.90
17697;DHT22;8967;47.984;7.842;2022-08-27T01:01:45;20.80;99.90
17697;DHT22;8967;47.984;7.842;2022-08-27T01:04:31;20.80;99.90
17697;DHT22;8967;47.984;7.842;2022-08-27T01:06:59;20.80;99.90
17697;DHT22;8967;47.984;7.842;2022-08-27T01:09:27;20.80;99.90
17697;DHT22;8967;47.984;7.842;2022-08-27T01:11:57;20.80;99.90
17697;DHT22;8967;47.984;7.842;2022-08-27T01:14:24;20.80;99.90
17697;DHT22;8967;47.984;7.842;2022-08-27T01:16:55;20.80;99.90
17697;DHT22;8967;47.984;7.842;2022-08-27T01:19:27;20.80;99.90
17697;DHT22;8967;47.984;7.842;2022-08-27T01:22:02;20.80;99.90
17697;DHT22;8967;47.984;7.842;2022-08-27T01:24:35;20.80;99.90
17697;DHT22;8967;47.984;7.842;2022-08-27T01:27:05;20.80;99.90
17697;DHT22;8967;47.984;7.842;2022-08-27T01:29:34;20.80;99.90
17697;DHT22;8967;47.984;7.842;2022-08-27T01:32:07;20.70;99.90
17697;DHT22;8967;47.984;7.842;2022-08-27T01:34:35;20.70;99.90
17697;DHT22;8967;47.984;7.842;2022-08-27T01:37:04;20.70;99.90
17697;DHT22;8967;47.984;7.842;2022-08-27T01:39:33;20.70;99.90
17697;DHT22;8967;47.984;7.842;2022-08-27T01:42:05;20.70;99.90
17697;DHT22;8967;47.984;7.842;2022-08-27T01:44:49;20.70;99.90
17697;DHT22;8967;47.984;7.842;2022-08-27T01:47:20;20.70;99.90
17697;DHT22;8967;47.984;7.842;2022-08-27T01:49:48;20.70;99.90
17697;DHT22;8967;47.984;7.842;2022-08-27T01:52:18;20.70;99.90
17697;DHT22;8967;47.984;7.842;2022-08-27T01:54:47;20.70;99.90
17697;DHT22;8967;47.984;7.842;2022-08-27T01:57:16;20.70;99.90
17697;DHT22;8967;47.984;7.842;2022-08-27T01:59:43;20.70;99.90
17697;DHT22;8967;47.984;7.842;2022-08-27T02:02:12;20.70;99.90
17697;DHT22;8967;47.984;7.842;2022-08-27T02:04:40;20.70;99.90
17697;DHT22;8967;47.984;7.842;2022-08-27T02:07:07;20.70;99.90
17697;DHT22;8967;47.984;7.842;2022-08-27T02:09:34;20.70;99.90
17697;DHT22;8967;47.984;7.842;2022-08-27T02:12:04;20.70;99.90
17697;DHT22;8967;47.984;7.842;2022-08-27T02:14:31;20.70;99.90
17697;DHT22;8967;47.984;7.842;2022-08-27T02:16:58;20.70;99.90
17697;DHT22;8967;47.984;7.842;2022-08-27T02:19:27;20.70;99.90
17697;DHT22;8967;47.984;7.842;2022-08-27T02:21:54;20.70;99.90
17697;DHT22;8967;47.984;7.842;2022-08-27T02:24:27;20.70;99.90
17697;DHT22;8967;47.984;7.842;2022-08-27T02:26:54;20.60;99.90
17697;DHT22;8967;47.984;7.842;2022-08-27T02:29:24;20.60;99.90
17697;DHT22;8967;47.984;7.842;2022-08-27T02:31:51;20.60;99.90
17697;DHT22;8967;47.984;7.842;2022-08-27T02:34:19;20.60;99.90
17697;DHT22;8967;47.984;7.842;2022-08-27T02:36:48;20.60;99.90
17697;DHT22;8967;47.984;7.842;2022-08-27T02:39:15;20.50;99.90
17697;DHT22;8967;47.984;7.842;2022-08-27T02:41:41;20.50;99.90
17697;DHT22;8967;47.984;7.842;2022-08-27T02:44:08;20.50;99.90
17697;DHT22;8967;47.984;7.842;2022-08-27T02:46:37;20.50;99.90
17697;DHT22;8967;47.984;7.842;2022-08-27T02:49:07;20.50;99.90
17697;DHT22;8967;47.984;7.842;2022-08-27T02:51:37;20.50;99.90
17697;DHT22;8967;47.984;7.842;2022-08-27T02:54:04;20.50;99.90
17697;DHT22;8967;47.984;7.842;2022-08-27T02:56:33;20.50;99.90
17697;DHT22;8967;47.984;7.842;2022-08-27T02:59:00;20.50;99.90
17697;DHT22;8967;47.984;7.842;2022-08-27T03:01:27;20.50;99.90
17697;DHT22;8967;47.984;7.842;2022-08-27T03:03:57;20.50;99.90
17697;DHT22;8967;47.984;7.842;2022-08-27T03:06:23;20.50;99.90
17697;DHT22;8967;47.984;7.842;2022-08-27T03:08:50;20.50;99.90
17697;DHT22;8967;47.984;7.842;2022-08-27T03:11:17;20.50;99.90
17697;DHT22;8967;47.984;7.842;2022-08-27T03:13:44;20.50;99.90
17697;DHT22;8967;47.984;7.842;2022-08-27T03:16:11;20.50;99.90
17697;DHT22;8967;47.984;7.842;2022-08-27T03:18:41;20.50;99.90
17697;DHT22;8967;47.984;7.842;2022-08-27T03:21:15;20.40;99.90
17697;DHT22;8967;47.984;7.842;2022-08-27T03:23:45;20.40;99.90
17697;DHT22;8967;47.984;7.842;2022-08-27T03:26:13;20.40;99.90
17697;DHT22;8967;47.984;7.842;2022-08-27T03:28:40;20.30;99.90
17697;DHT22;8967;47.984;7.842;2022-08-27T03:31:13;20.30;99.90
17697;DHT22;8967;47.984;7.842;2022-08-27T03:33:41;20.30;99.90
17697;DHT22;8967;47.984;7.842;2022-08-27T03:36:09;20.30;99.90
17697;DHT22;8967;47.984;7.842;2022-08-27T03:38:36;20.30;99.90
17697;DHT22;8967;47.984;7.842;2022-08-27T03:41:05;20.20;99.90
17697;DHT22;8967;47.984;7.842;2022-08-27T03:43:32;20.20;99.90
17697;DHT22;8967;47.984;7.842;2022-08-27T03:46:00;20.20;99.90
17697;DHT22;8967;47.984;7.842;2022-08-27T03:48:27;20.20;99.90
17697;DHT22;8967;47.984;7.842;2022-08-27T03:50:54;20.20;99.90
17697;DHT22;8967;47.984;7.842;2022-08-27T03:53:23;20.20;99.90
17697;DHT22;8967;47.984;7.842;2022-08-27T03:55:50;20.20;99.90
17697;DHT22;8967;47.984;7.842;2022-08-27T03:58:17;20.30;99.90
17697;DHT22;8967;47.984;7.842;2022-08-27T04:00:44;20.30;99.90
17697;DHT22;8967;47.984;7.842;2022-08-27T04:03:12;20.40;99.90
17697;DHT22;8967;47.984;7.842;2022-08-27T04:05:40;20.30;99.90
17697;DHT22;8967;47.984;7.842;2022-08-27T04:08:07;20.30;99.90
17697;DHT22;8967;47.984;7.842;2022-08-27T04:10:38;20.30;99.90
17697;DHT22;8967;47.984;7.842;2022-08-27T04:13:05;20.30;99.90
17697;DHT22;8967;47.984;7.842;2022-08-27T04:15:32;20.40;99.90
17697;DHT22;8967;47.984;7.842;2022-08-27T04:17:59;20.40;99.90
17697;DHT22;8967;47.984;7.842;2022-08-27T04:20:28;20.30;99.90
17697;DHT22;8967;47.984;7.842;2022-08-27T04:22:55;20.30;99.90
17697;DHT22;8967;47.984;7.842;2022-08-27T04:25:25;20.30;99.90
17697;DHT22;8967;47.984;7.842;2022-08-27T04:27:53;20.30;99.90
17697;DHT22;8967;47.984;7.842;2022-08-27T04:30:20;20.30;99.90
17697;DHT22;8967;47.984;7.842;2022-08-27T04:32:47;20.30;99.90
17697;DHT22;8967;47.984;7.842;2022-08-27T04:35:15;20.30;99.90
17697;DHT22;8967;47.984;7.842;2022-08-27T04:37:45;20.30;99.90
17697;DHT22;8967;47.984;7.842;2022-08-27T04:40:12;20.30;99.90
17697;DHT22;8967;47.984;7.842;2022-08-27T04:42:38;20.30;99.90
17697;DHT22;8967;47.984;7.842;2022-08-27T04:45:08;20.30;99.90
17697;DHT22;8967;47.984;7.842;2022-08-27T04:47:35;20.30;99.90
17697;DHT22;8967;47.984;7.842;2022-08-27T04:50:05;20.30;99.90
17697;DHT22;8967;47.984;7.842;2022-08-27T04:52:32;20.30;99.90
17697;DHT22;8967;47.984;7.842;2022-08-27T04:54:59;20.30;99.90
17697;DHT22;8967;47.984;7.842;2022-08-27T04:57:26;20.30;99.90
17697;DHT22;8967;47.984;7.842;2022-08-27T04:59:53;20.30;99.90
17697;DHT22;8967;47.984;7.842;2022-08-27T05:02:22;20.40;99.90
17697;DHT22;8967;47.984;7.842;2022-08-27T05:04:50;20.40;99.90
17697;DHT22;8967;47.984;7.842;2022-08-27T05:07:17;20.40;99.90
17697;DHT22;8967;47.984;7.842;2022-08-27T05:09:44;20.40;99.90
17697;DHT22;8967;47.984;7.842;2022-08-27T05:12:11;20.40;99.90
17697;DHT22;8967;47.984;7.842;2022-08-27T05:14:38;20.40;99.90
17697;DHT22;8967;47.984;7.842;2022-08-27T05:17:05;20.40;99.90
17697;DHT22;8967;47.984;7.842;2022-08-27T05:19:34;20.40;99.90
17697;DHT22;8967;47.984;7.842;2022-08-27T05:22:01;20.40;99.90
17697;DHT22;8967;47.984;7.842;2022-08-27T05:24:28;20.40;99.90
17697;DHT22;8967;47.984;7.842;2022-08-27T05:26:55;20.40;99.90
17697;DHT22;8967;47.984;7.842;2022-08-27T05:29:22;20.50;99.90
17697;DHT22;8967;47.984;7.842;2022-08-27T05:31:49;20.50;99.90
17697;DHT22;8967;47.984;7.842;2022-08-27T05:34:16;20.50;99.90
17697;DHT22;8967;47.984;7.842;2022-08-27T05:36:44;20.60;99.90
17697;DHT22;8967;47.984;7.842;2022-08-27T05:39:11;20.60;99.90
17697;DHT22;8967;47.984;7.842;2022-08-27T05:41:38;20.60;99.90
17697;DHT22;8967;47.984;7.842;2022-08-27T05:44:07;20.60;99.90
17697;DHT22;8967;47.984;7.842;2022-08-27T05:46:37;20.60;99.90
17697;DHT22;8967;47.984;7.842;2022-08-27T05:49:04;20.70;99.90
17697;DHT22;8967;47.984;7.842;2022-08-27T05:51:33;20.70;99.90
17697;DHT22;8967;47.984;7.842;2022-08-27T05:54:05;20.70;99.90
17697;DHT22;8967;47.984;7.842;2022-08-27T05:56:35;20.70;99.90
17697;DHT22;8967;47.984;7.842;2022-08-27T05:59:03;20.70;99.90
17697;DHT22;8967;47.984;7.842;2022-08-27T06:01:51;20.70;99.90
17697;DHT22;8967;47.984;7.842;2022-08-27T06:04:19;20.70;99.90
17697;DHT22;8967;47.984;7.842;2022-08-27T06:06:48;20.70;99.90
17697;DHT22;8967;47.984;7.842;2022-08-27T06:09:20;20.80;99.90
17697;DHT22;8967;47.984;7.842;2022-08-27T06:11:52;20.80;99.90
17697;DHT22;8967;47.984;7.842;2022-08-27T06:14:20;20.80;99.90
17697;DHT22;8967;47.984;7.842;2022-08-27T06:16:47;20.80;99.90
17697;DHT22;8967;47.984;7.842;2022-08-27T06:19:15;20.80;99.90
17697;DHT22;8967;47.984;7.842;2022-08-27T06:21:42;20.70;99.90
17697;DHT22;8967;47.984;7.842;2022-08-27T06:24:10;20.80;99.90
17697;DHT22;8967;47.984;7.842;2022-08-27T06:26:39;20.80;99.90
17697;DHT22;8967;47.984;7.842;2022-08-27T06:29:07;20.80;99.90
17697;DHT22;8967;47.984;7.842;2022-08-27T06:31:34;20.80;99.90
17697;DHT22;8967;47.984;7.842;2022-08-27T06:34:04;20.80;99.90
17697;DHT22;8967;47.984;7.842;2022-08-27T06:36:32;20.80;99.90
17697;DHT22;8967;47.984;7.842;2022-08-27T06:39:03;20.80;99.90
17697;DHT22;8967;47.984;7.842;2022-08-27T06:41:32;20.80;99.90
17697;DHT22;8967;47.984;7.842;2022-08-27T06:44:01;20.80;99.90
17697;DHT22;8967;47.984;7.842;2022-08-27T06:46:29;20.80;99.90
17697;DHT22;8967;47.984;7.842;2022-08-27T06:48:57;20.80;99.90
17697;DHT22;8967;47.984;7.842;2022-08-27T06:51:30;20.90;99.90
17697;DHT22;8967;47.984;7.842;2022-08-27T06:53:58;20.90;99.90
17697;DHT22;8967;47.984;7.842;2022-08-27T06:56:26;21.00;99.90
17697;DHT22;8967;47.984;7.842;2022-08-27T06:58:54;21.00;99.90
17697;DHT22;8967;47.984;7.842;2022-08-27T07:01:25;21.00;99.90
17697;DHT22;8967;47.984;7.842;2022-08-27T07:03:59;21.00;99.90
17697;DHT22;8967;47.984;7.842;2022-08-27T07:06:28;21.10;99.90
17697;DHT22;8967;47.984;7.842;2022-08-27T07:08:56;21.10;99.90
17697;DHT22;8967;47.984;7.842;2022-08-27T07:11:25;21.10;99.90
17697;DHT22;8967;47.984;7.842;2022-08-27T07:13:53;21.20;99.90
17697;DHT22;8967;47.984;7.842;2022-08-27T07:16:25;21.20;99.90
17697;DHT22;8967;47.984;7.842;2022-08-27T07:18:56;21.20;99.90
17697;DHT22;8967;47.984;7.842;2022-08-27T07:21:26;21.30;99.90
17697;DHT22;8967;47.984;7.842;2022-08-27T07:23:54;21.30;99.90
17697;DHT22;8967;47.984;7.842;2022-08-27T07:26:23;21.40;99.90
17697;DHT22;8967;47.984;7.842;2022-08-27T07:28:53;21.40;99.90
17697;DHT22;8967;47.984;7.842;2022-08-27T07:31:24;21.40;99.90
17697;DHT22;8967;47.984;7.842;2022-08-27T07:33:51;21.50;99.90
17697;DHT22;8967;47.984;7.842;2022-08-27T07:36:18;21.50;99.90
17697;DHT22;8967;47.984;7.842;2022-08-27T07:38:45;21.60;99.90
17697;DHT22;8967;47.984;7.842;2022-08-27T07:41:12;21.70;99.90
17697;DHT22;8967;47.984;7.842;2022-08-27T07:43:39;21.80;99.90
17697;DHT22;8967;47.984;7.842;2022-08-27T07:46:25;21.90;99.90
17697;DHT22;8967;47.984;7.842;2022-08-27T07:48:52;21.90;99.90
17697;DHT22;8967;47.984;7.842;2022-08-27T07:51:22;22.10;99.90
17697;DHT22;8967;47.984;7.842;2022-08-27T07:53:49;22.10;99.90
17697;DHT22;8967;47.984;7.842;2022-08-27T07:56:17;22.20;99.90
17697;DHT22;8967;47.984;7.842;2022-08-27T07:58:46;22.20;99.90
17697;DHT22;8967;47.984;7.842;2022-08-27T08:01:13;22.30;99.90
17697;DHT22;8967;47.984;7.842;2022-08-27T08:03:42;22.40;99.90
17697;DHT22;8967;47.984;7.842;2022-08-27T08:06:15;22.40;99.90
17697;DHT22;8967;47.984;7.842;2022-08-27T08:08:43;22.50;99.90
17697;DHT22;8967;47.984;7.842;2022-08-27T08:11:12;22.60;99.90
17697;DHT22;8967;47.984;7.842;2022-08-27T08:13:40;22.60;99.90
17697;DHT22;8967;47.984;7.842;2022-08-27T08:16:07;22.60;99.90
17697;DHT22;8967;47.984;7.842;2022-08-27T08:18:35;22.60;99.90
17697;DHT22;8967;47.984;7.842;2022-08-27T08:21:06;22.70;99.90
17697;DHT22;8967;47.984;7.842;2022-08-27T08:23:33;22.70;99.90
17697;DHT22;8967;47.984;7.842;2022-08-27T08:26:03;22.80;99.90
17697;DHT22;8967;47.984;7.842;2022-08-27T08:28:31;22.80;99.90
17697;DHT22;8967;47.984;7.842;2022-08-27T08:30:58;22.90;99.90
17697;DHT22;8967;47.984;7.842;2022-08-27T08:33:26;22.90;99.90
17697;DHT22;8967;47.984;7.842;2022-08-27T08:35:53;22.90;99.90
17697;DHT22;8967;47.984;7.842;2022-08-27T08:38:22;22.90;99.90
17697;DHT22;8967;47.984;7.842;2022-08-27T08:40:51;22.90;99.90
17697;DHT22;8967;47.984;7.842;2022-08-27T08:43:31;23.00;99.90
17697;DHT22;8967;47.984;7.842;2022-08-27T08:46:05;23.00;99.90
17697;DHT22;8967;47.984;7.842;2022-08-27T08:48:36;23.00;99.90
17697;DHT22;8967;47.984;7.842;2022-08-27T08:51:12;23.00;99.90
17697;DHT22;8967;47.984;7.842;2022-08-27T08:53:49;23.00;99.90
17697;DHT22;8967;47.984;7.842;2022-08-27T08:56:22;23.00;99.90
17697;DHT22;8967;47.984;7.842;2022-08-27T08:58:54;23.00;99.90
17697;DHT22;8967;47.984;7.842;2022-08-27T09:01:25;23.00;99.90
17697;DHT22;8967;47.984;7.842;2022-08-27T09:03:54;23.00;99.90
17697;DHT22;8967;47.984;7.842;2022-08-27T09:06:36;23.10;99.90
17697;DHT22;8967;47.984;7.842;2022-08-27T09:09:17;23.10;99.90
17697;DHT22;8967;47.984;7.842;2022-08-27T09:11:52;23.20;99.90
17697;DHT22;8967;47.984;7.842;2022-08-27T09:14:25;23.20;99.90
17697;DHT22;8967;47.984;7.842;2022-08-27T09:16:58;23.20;99.90
17697;DHT22;8967;47.984;7.842;2022-08-27T09:19:28;23.20;99.90
17697;DHT22;8967;47.984;7.842;2022-08-27T09:22:00;23.20;99.90
17697;DHT22;8967;47.984;7.842;2022-08-27T09:24:39;23.30;99.90
17697;DHT22;8967;47.984;7.842;2022-08-27T09:27:08;23.40;99.90
17697;DHT22;8967;47.984;7.842;2022-08-27T09:29:46;23.40;99.90
17697;DHT22;8967;47.984;7.842;2022-08-27T09:32:14;23.50;99.90
17697;DHT22;8967;47.984;7.842;2022-08-27T09:34:44;23.50;99.90
17697;DHT22;8967;47.984;7.842;2022-08-27T09:37:16;23.60;99.90
17697;DHT22;8967;47.984;7.842;2022-08-27T09:39:51;23.60;99.90
17697;DHT22;8967;47.984;7.842;2022-08-27T09:42:26;23.70;99.90
17697;DHT22;8967;47.984;7.842;2022-08-27T09:44:57;23.70;99.90
17697;DHT22;8967;47.984;7.842;2022-08-27T09:47:24;23.70;99.80
17697;DHT22;8967;47.984;7.842;2022-08-27T09:50:04;23.80;99.70
17697;DHT22;8967;47.984;7.842;2022-08-27T09:52:34;23.80;99.70
17697;DHT22;8967;47.984;7.842;2022-08-27T09:55:03;23.80;99.70
17697;DHT22;8967;47.984;7.842;2022-08-27T09:57:33;23.90;99.60
17697;DHT22;8967;47.984;7.842;2022-08-27T10:00:02;23.90;99.70
17697;DHT22;8967;47.984;7.842;2022-08-27T10:02:49;23.90;99.70
17697;DHT22;8967;47.984;7.842;2022-08-27T10:05:23;23.90;99.30
17697;DHT22;8967;47.984;7.842;2022-08-27T10:07:55;23.80;99.10
17697;DHT22;8967;47.984;7.842;2022-08-27T10:10:38;23.90;99.10
17697;DHT22;8967;47.984;7.842;2022-08-27T10:13:10;23.90;98.80
17697;DHT22;8967;47.984;7.842;2022-08-27T10:15:47;23.90;98.70
17697;DHT22;8967;47.984;7.842;2022-08-27T10:18:23;23.90;98.80
17697;DHT22;8967;47.984;7.842;2022-08-27T10:21:03;24.00;99.00
17697;DHT22;8967;47.984;7.842;2022-08-27T10:23:38;24.00;98.70
17697;DHT22;8967;47.984;7.842;2022-08-27T10:26:14;24.10;98.40
17697;DHT22;8967;47.984;7.842;2022-08-27T10:28:58;24.10;98.20
17697;DHT22;8967;47.984;7.842;2022-08-27T10:31:34;24.20;98.10
17697;DHT22;8967;47.984;7.842;2022-08-27T10:34:18;24.30;98.10
17697;DHT22;8967;47.984;7.842;2022-08-27T10:36:55;24.30;98.30
17697;DHT22;8967;47.984;7.842;2022-08-27T10:39:37;24.40;97.70
17697;DHT22;8967;47.984;7.842;2022-08-27T10:42:14;24.40;97.20
17697;DHT22;8967;47.984;7.842;2022-08-27T10:44:53;24.40;97.00
17697;DHT22;8967;47.984;7.842;2022-08-27T10:47:33;24.40;96.40
17697;DHT22;8967;47.984;7.842;2022-08-27T10:50:05;24.40;96.20
17697;DHT22;8967;47.984;7.842;2022-08-27T10:52:40;24.30;96.20
17697;DHT22;8967;47.984;7.842;2022-08-27T10:55:12;24.30;96.20
17697;DHT22;8967;47.984;7.842;2022-08-27T10:57:56;24.30;96.30
17697;DHT22;8967;47.984;7.842;2022-08-27T11:00:33;24.30;96.60
17697;DHT22;8967;47.984;7.842;2022-08-27T11:03:07;24.30;96.60
17697;DHT22;8967;47.984;7.842;2022-08-27T11:05:41;24.30;96.30
17697;DHT22;8967;47.984;7.842;2022-08-27T11:08:13;24.30;96.10
17697;DHT22;8967;47.984;7.842;2022-08-27T11:10:45;24.30;95.00
17697;DHT22;8967;47.984;7.842;2022-08-27T11:13:18;24.30;95.30
17697;DHT22;8967;47.984;7.842;2022-08-27T11:15:48;24.40;95.30
17697;DHT22;8967;47.984;7.842;2022-08-27T11:18:21;24.40;94.30
17697;DHT22;8967;47.984;7.842;2022-08-27T11:20:54;24.40;94.80
17697;DHT22;8967;47.984;7.842;2022-08-27T11:23:29;24.40;94.30
17697;DHT22;8967;47.984;7.842;2022-08-27T11:26:00;24.40;94.00
17697;DHT22;8967;47.984;7.842;2022-08-27T11:28:34;24.50;94.10
17697;DHT22;8967;47.984;7.842;2022-08-27T11:31:07;24.50;94.00
17697;DHT22;8967;47.984;7.842;2022-08-27T11:33:41;24.50;94.20
17697;DHT22;8967;47.984;7.842;2022-08-27T11:39:36;24.70;94.20
17697;DHT22;8967;47.984;7.842;2022-08-27T11:42:08;24.70;94.30
17697;DHT22;8967;47.984;7.842;2022-08-27T11:44:41;24.70;94.20
17697;DHT22;8967;47.984;7.842;2022-08-27T11:47:12;24.80;94.80
17697;DHT22;8967;47.984;7.842;2022-08-27T11:49:44;24.80;94.50
17697;DHT22;8967;47.984;7.842;2022-08-27T11:52:22;24.90;94.50
17697;DHT22;8967;47.984;7.842;2022-08-27T11:54:56;25.00;94.60
17697;DHT22;8967;47.984;7.842;2022-08-27T11:57:28;25.00;94.40
17697;DHT22;8967;47.984;7.842;2022-08-27T11:59:57;25.00;94.30
17697;DHT22;8967;47.984;7.842;2022-08-27T12:02:27;25.00;94.10
17697;DHT22;8967;47.984;7.842;2022-08-27T12:05:07;25.10;94.20
17697;DHT22;8967;47.984;7.842;2022-08-27T12:07:35;25.10;94.20
17697;DHT22;8967;47.984;7.842;2022-08-27T12:10:29;25.20;94.00
17697;DHT22;8967;47.984;7.842;2022-08-27T12:13:07;25.20;93.80
17697;DHT22;8967;47.984;7.842;2022-08-27T12:15:50;25.30;93.80
17697;DHT22;8967;47.984;7.842;2022-08-27T12:18:56;25.30;94.00
17697;DHT22;8967;47.984;7.842;2022-08-27T12:21:35;25.40;93.80
17697;DHT22;8967;47.984;7.842;2022-08-27T12:24:39;25.40;93.60
17697;DHT22;8967;47.984;7.842;2022-08-27T12:27:26;25.30;93.30
17697;DHT22;8967;47.984;7.842;2022-08-27T12:29:57;25.30;93.20
17697;DHT22;8967;47.984;7.842;2022-08-27T12:32:28;25.20;92.90
17697;DHT22;8967;47.984;7.842;2022-08-27T12:35:03;25.10;92.70
17697;DHT22;8967;47.984;7.842;2022-08-27T12:37:34;25.00;93.10
17697;DHT22;8967;47.984;7.842;2022-08-27T12:40:07;25.00;93.20
17697;DHT22;8967;47.984;7.842;2022-08-27T12:42:37;24.90;93.10
17697;DHT22;8967;47.984;7.842;2022-08-27T12:45:04;24.90;93.10
17697;DHT22;8967;47.984;7.842;2022-08-27T12:47:38;24.80;93.50
17697;DHT22;8967;47.984;7.842;2022-08-27T12:50:07;24.80;93.90
17697;DHT22;8967;47.984;7.842;2022-08-27T12:53:03;24.80;94.20
17697;DHT22;8967;47.984;7.842;2022-08-27T12:55:42;24.80;94.60
17697;DHT22;8967;47.984;7.842;2022-08-27T12:58:17;24.70;94.70
17697;DHT22;8967;47.984;7.842;2022-08-27T13:01:11;24.70;94.90
17697;DHT22;8967;47.984;7.842;2022-08-27T13:03:46;24.70;95.10
17697;DHT22;8967;47.984;7.842;2022-08-27T13:06:18;24.60;95.00
17697;DHT22;8967;47.984;7.842;2022-08-27T13:08:46;24.60;94.90
17697;DHT22;8967;47.984;7.842;2022-08-27T13:11:22;24.50;95.00
17697;DHT22;8967;47.984;7.842;2022-08-27T13:14:02;24.50;95.40
17697;DHT22;8967;47.984;7.842;2022-08-27T13:16:33;24.50;95.60
17697;DHT22;8967;47.984;7.842;2022-08-27T13:19:01;24.50;95.70
17697;DHT22;8967;47.984;7.842;2022-08-27T13:21:32;24.50;95.50
17697;DHT22;8967;47.984;7.842;2022-08-27T13:24:02;24.50;95.30
17697;DHT22;8967;47.984;7.842;2022-08-27T13:26:31;24.50;95.40
17697;DHT22;8967;47.984;7.842;2022-08-27T13:29:02;24.50;95.60
17697;DHT22;8967;47.984;7.842;2022-08-27T13:31:31;24.50;95.50
17697;DHT22;8967;47.984;7.842;2022-08-27T13:34:01;24.50;95.40
17697;DHT22;8967;47.984;7.842;2022-08-27T13:36:30;24.50;95.40
17697;DHT22;8967;47.984;7.842;2022-08-27T13:39:00;24.50;95.30
17697;DHT22;8967;47.984;7.842;2022-08-27T13:41:30;24.50;95.30
17697;DHT22;8967;47.984;7.842;2022-08-27T13:44:05;24.50;95.40
17697;DHT22;8967;47.984;7.842;2022-08-27T13:46:43;24.50;95.70
17697;DHT22;8967;47.984;7.842;2022-08-27T13:49:17;24.60;95.80
17697;DHT22;8967;47.984;7.842;2022-08-27T13:51:47;24.60;96.00
17697;DHT22;8967;47.984;7.842;2022-08-27T13:54:17;24.60;96.30
17697;DHT22;8967;47.984;7.842;2022-08-27T13:56:58;24.60;96.60
17697;DHT22;8967;47.984;7.842;2022-08-27T13:59:34;24.60;96.70
17697;DHT22;8967;47.984;7.842;2022-08-27T14:02:03;24.60;96.50
17697;DHT22;8967;47.984;7.842;2022-08-27T14:04:43;24.50;96.50
17697;DHT22;8967;47.984;7.842;2022-08-27T14:07:15;24.50;96.60
17697;DHT22;8967;47.984;7.842;2022-08-27T14:09:48;24.40;96.50
17697;DHT22;8967;47.984;7.842;2022-08-27T14:12:24;24.40;96.70
17697;DHT22;8967;47.984;7.842;2022-08-27T14:14:53;24.30;96.90
17697;DHT22;8967;47.984;7.842;2022-08-27T14:17:24;24.30;97.00
17697;DHT22;8967;47.984;7.842;2022-08-27T14:19:58;24.20;97.20
17697;DHT22;8967;47.984;7.842;2022-08-27T14:22:26;24.10;97.70
17697;DHT22;8967;47.984;7.842;2022-08-27T14:24:53;24.10;98.50
17697;DHT22;8967;47.984;7.842;2022-08-27T14:27:20;24.10;99.80
17697;DHT22;8967;47.984;7.842;2022-08-27T14:29:49;24.00;99.90
17697;DHT22;8967;47.984;7.842;2022-08-27T14:32:16;23.90;99.90
17697;DHT22;8967;47.984;7.842;2022-08-27T14:34:46;23.80;99.90
17697;DHT22;8967;47.984;7.842;2022-08-27T14:37:15;23.70;99.90
17697;DHT22;8967;47.984;7.842;2022-08-27T14:39:42;23.60;99.90
17697;DHT22;8967;47.984;7.842;2022-08-27T14:42:09;23.50;99.90
17697;DHT22;8967;47.984;7.842;2022-08-27T14:44:38;23.50;99.90
17697;DHT22;8967;47.984;7.842;2022-08-27T14:47:06;23.40;99.90
17697;DHT22;8967;47.984;7.842;2022-08-27T14:49:37;23.40;99.90
17697;DHT22;8967;47.984;7.842;2022-08-27T14:52:07;23.30;99.90
17697;DHT22;8967;47.984;7.842;2022-08-27T14:54:35;23.20;99.90
17697;DHT22;8967;47.984;7.842;2022-08-27T14:57:04;23.10;99.90
17697;DHT22;8967;47.984;7.842;2022-08-27T14:59:32;23.10;99.90
17697;DHT22;8967;47.984;7.842;2022-08-27T15:02:01;23.00;99.90
17697;DHT22;8967;47.984;7.842;2022-08-27T15:04:29;22.90;99.90
17697;DHT22;8967;47.984;7.842;2022-08-27T15:06:57;22.90;99.90
17697;DHT22;8967;47.984;7.842;2022-08-27T15:09:24;22.80;99.90
17697;DHT22;8967;47.984;7.842;2022-08-27T15:11:52;22.70;99.90
17697;DHT22;8967;47.984;7.842;2022-08-27T15:14:24;22.70;99.90
17697;DHT22;8967;47.984;7.842;2022-08-27T15:16:52;22.60;99.90
17697;DHT22;8967;47.984;7.842;2022-08-27T15:19:21;22.50;99.90
17697;DHT22;8967;47.984;7.842;2022-08-27T15:21:49;22.40;99.90
17697;DHT22;8967;47.984;7.842;2022-08-27T15:24:19;22.40;99.90
17697;DHT22;8967;47.984;7.842;2022-08-27T15:26:50;22.40;99.90
17697;DHT22;8967;47.984;7.842;2022-08-27T15:29:21;22.30;99.90
17697;DHT22;8967;47.984;7.842;2022-08-27T15:31:48;22.30;99.90
17697;DHT22;8967;47.984;7.842;2022-08-27T15:34:16;22.20;99.90
17697;DHT22;8967;47.984;7.842;2022-08-27T15:36:43;22.20;99.90
17697;DHT22;8967;47.984;7.842;2022-08-27T15:39:10;22.10;99.90
17697;DHT22;8967;47.984;7.842;2022-08-27T15:41:38;22.10;99.90
17697;DHT22;8967;47.984;7.842;2022-08-27T15:44:05;22.00;99.90
17697;DHT22;8967;47.984;7.842;2022-08-27T15:46:33;22.00;99.90
17697;DHT22;8967;47.984;7.842;2022-08-27T15:49:00;22.00;99.90
17697;DHT22;8967;47.984;7.842;2022-08-27T15:51:29;22.00;99.90
17697;DHT22;8967;47.984;7.842;2022-08-27T15:53:58;22.00;99.90
17697;DHT22;8967;47.984;7.842;2022-08-27T15:56:26;22.10;99.90
17697;DHT22;8967;47.984;7.842;2022-08-27T15:58:53;22.10;99.90
17697;DHT22;8967;47.984;7.842;2022-08-27T16:01:24;22.10;99.90
17697;DHT22;8967;47.984;7.842;2022-08-27T16:03:54;22.20;99.90
17697;DHT22;8967;47.984;7.842;2022-08-27T16:06:23;22.20;99.90
17697;DHT22;8967;47.984;7.842;2022-08-27T16:08:50;22.30;99.90
17697;DHT22;8967;47.984;7.842;2022-08-27T16:11:17;22.30;99.90